Rosebud Indian Reservation, South Dakota
Current Conditions -  °F | °C
As of 8:52 AM on Wednesday 22 Oct 2014 (Local Time) from KVTN Reporting Station
Light Rain Light Rain  
Wind Chill: 58°   Ceiling: 8000
Heat Index: 58°   Visibility: 10mi
Dew Point: 48°   Wind: 9mph
Humidity: 70%   Direction: 300°WNW
Pressure: 29.96"   Gusts: NA
Location:  43.2328°N, 100.853°W
Report Text: KVTN 221352Z AUTO 30008KT 10SM -RA FEW037 OVC080 14/09 A2996 RMK AO2 RAB39 SLP135 P0000 T01440089
Loading
Personal Weather Stations






























Interactive Weather Map
Tropical Storm Tracking
New forecast layout! Learn more

10-Day Weather Forecast

Advertisements
Track Severe Weather on mobile